Time;durP1;ratioP1;P1;durP2;ratioP2;P2;SDS_P1;SDS_P2;PMS_P1;PMS_P2;Temp;Humidity;BMP_temperature;BMP_pressure;BME280_temperature;BME280_humidity;BME280_pressure;Samples;Min_cycle;Max_cycle;Signal;HPM_P1;HPM_P2
2023/03/18 00:00:45;;;;;;;0.20;0.20;;;;;;;19.02;47.76;100762.31;4991803;28;20053;-62
2023/03/18 00:03:10;;;;;;;0.20;0.20;;;;;;;19.11;47.85;100772.31;4984031;28;20046;-61
2023/03/18 00:05:36;;;;;;;0.15;0.15;;;;;;;19.19;47.98;100771.72;4972083;28;20132;-61
2023/03/18 00:08:04;;;;;;;0.10;0.10;;;;;;;18.89;49.20;100774.63;4971831;28;20110;-59
2023/03/18 00:10:30;;;;;;;0.20;0.20;;;;;;;19.09;48.31;100771.78;4971693;28;20549;-62
2023/03/18 00:12:56;;;;;;;0.20;0.20;;;;;;;19.60;47.27;100771.41;4972495;28;20473;-61
2023/03/18 00:15:21;;;;;;;0.10;0.10;;;;;;;19.36;47.64;100776.78;4971413;28;20030;-59
2023/03/18 00:17:50;;;;;;;0.20;0.20;;;;;;;19.79;46.18;100773.13;4971609;28;20050;-60
2023/03/18 00:20:17;;;;;;;0.20;0.20;;;;;;;19.53;46.89;100779.09;4971971;28;20035;-61
2023/03/18 00:22:44;;;;;;;0.13;0.13;;;;;;;19.57;47.17;100780.16;4971910;28;20034;-59
2023/03/18 00:25:12;;;;;;;0.25;0.25;;;;;;;20.23;45.11;100770.25;4971886;28;20250;-59
2023/03/18 00:27:38;;;;;;;0.17;0.17;;;;;;;20.09;45.36;100764.63;4971642;28;20061;-60
2023/03/18 00:30:05;;;;;;;0.13;0.13;;;;;;;20.37;44.24;100762.16;4971640;28;20041;-62
2023/03/18 00:32:31;;;;;;;0.30;0.30;;;;;;;20.10;45.33;100765.47;4971373;28;20433;-60
2023/03/18 00:34:57;;;;;;;0.20;0.20;;;;;;;20.06;45.36;100764.41;4971355;28;20431;-60
2023/03/18 00:37:30;;;;;;;0.10;0.10;;;;;;;20.14;44.83;100772.78;4972134;28;20041;-61
2023/03/18 00:40:06;;;;;;;0.20;0.20;;;;;;;19.68;46.33;100777.06;4971916;28;20081;-62
2023/03/18 00:42:46;;;;;;;0.20;0.20;;;;;;;19.43;47.93;100780.00;4971494;28;20038;-60
2023/03/18 00:45:13;;;;;;;0.10;0.10;;;;;;;19.57;46.69;100783.72;4956974;28;20031;-61
2023/03/18 00:47:39;;;;;;;0.20;0.20;;;;;;;19.43;47.10;100781.91;4971131;28;20037;-62
2023/03/18 00:50:07;;;;;;;0.10;0.10;;;;;;;19.73;46.51;100782.47;4971295;28;20507;-59
2023/03/18 00:52:33;;;;;;;0.10;0.10;;;;;;;19.47;47.46;100794.69;4972466;28;20091;-60
2023/03/18 00:54:59;;;;;;;0.10;0.10;;;;;;;18.70;50.16;100786.44;4971616;28;20050;-61
2023/03/18 00:57:25;;;;;;;0.20;0.20;;;;;;;18.73;49.82;100783.19;4971927;28;20045;-61
2023/03/18 00:59:50;;;;;;;0.20;0.20;;;;;;;18.91;48.95;100794.22;4971393;28;20043;-60
2023/03/18 01:02:16;;;;;;;0.20;0.20;;;;;;;19.29;48.44;100796.16;4971021;28;20043;-61
2023/03/18 01:04:41;;;;;;;0.10;0.10;;;;;;;18.98;49.07;100800.19;4988419;28;20097;-61
2023/03/18 01:07:07;;;;;;;0.20;0.20;;;;;;;18.90;49.11;100794.50;4991369;28;20046;-62
2023/03/18 01:09:33;;;;;;;0.10;0.10;;;;;;;19.11;48.51;100788.66;4990556;28;20041;-59
2023/03/18 01:11:58;;;;;;;0.20;0.20;;;;;;;19.16;48.82;100802.22;4990852;28;20034;-60
2023/03/18 01:14:24;;;;;;;0.20;0.20;;;;;;;18.83;49.76;100808.44;4991847;28;20030;-61
2023/03/18 01:16:49;;;;;;;0.20;0.20;;;;;;;19.17;48.88;100805.78;4994441;28;20101;-60
2023/03/18 01:19:15;;;;;;;0.30;0.30;;;;;;;19.42;48.57;100802.09;4994704;28;20050;-60
2023/03/18 01:21:40;;;;;;;0.10;0.10;;;;;;;19.56;47.69;100812.06;4994356;28;20030;-60
2023/03/18 01:24:06;;;;;;;0.20;0.20;;;;;;;19.43;47.83;100804.53;4994548;28;20560;-62
2023/03/18 01:26:32;;;;;;;0.10;0.10;;;;;;;19.54;48.25;100816.16;4994438;28;20096;-60
2023/03/18 01:28:58;;;;;;;0.20;0.20;;;;;;;19.13;49.38;100816.44;4994275;28;20036;-61
2023/03/18 01:31:24;;;;;;;0.10;0.10;;;;;;;18.99;49.59;100811.88;4994713;28;20042;-60
2023/03/18 01:33:50;;;;;;;0.20;0.20;;;;;;;19.49;48.24;100814.31;4993825;28;20031;-60
2023/03/18 01:36:16;;;;;;;0.22;0.22;;;;;;;18.95;50.50;100808.09;5004555;28;20066;-61
2023/03/18 01:38:42;;;;;;;0.20;0.20;;;;;;;18.77;50.63;100803.31;4996396;28;20042;-61
2023/03/18 01:41:08;;;;;;;0.20;0.20;;;;;;;19.73;48.13;100798.84;4994042;28;20561;-59
2023/03/18 01:43:37;;;;;;;0.20;0.20;;;;;;;19.23;49.54;100804.66;4993935;28;20053;-61
2023/03/18 01:46:29;;;;;;;0.20;0.20;;;;;;;19.65;49.03;100809.53;4994831;28;20243;-59
2023/03/18 01:48:55;;;;;;;0.17;0.17;;;;;;;19.12;50.21;100801.16;4993886;28;20038;-60
2023/03/18 01:51:23;;;;;;;0.20;0.20;;;;;;;18.81;51.21;100805.16;4993768;28;20121;-62
2023/03/18 01:53:50;;;;;;;0.20;0.20;;;;;;;18.93;50.63;100793.94;5001217;28;20042;-60
2023/03/18 01:56:16;;;;;;;0.20;0.20;;;;;;;19.54;48.94;100794.34;4999665;28;20045;-61
2023/03/18 01:58:45;;;;;;;0.25;0.25;;;;;;;19.18;49.97;100794.59;4993840;28;20497;-59
2023/03/18 02:01:30;;;;;;;0.20;0.20;;;;;;;18.97;50.66;100803.16;4994363;28;20065;-61
2023/03/18 02:03:57;;;;;;;0.20;0.20;;;;;;;18.65;52.04;100808.25;4993380;28;20136;-60
2023/03/18 02:06:23;;;;;;;0.20;0.20;;;;;;;18.79;51.12;100809.28;4993477;28;20533;-60
2023/03/18 02:08:48;;;;;;;0.20;0.20;;;;;;;18.79;51.50;100814.72;4993470;28;20050;-61
2023/03/18 02:11:14;;;;;;;0.20;0.20;;;;;;;18.96;51.10;100809.72;4993531;28;20142;-59
2023/03/18 02:13:42;;;;;;;0.10;0.10;;;;;;;18.18;53.28;100823.06;4993581;28;20030;-60
2023/03/18 02:16:17;;;;;;;0.20;0.20;;;;;;;17.91;54.84;100819.84;4993797;28;20030;-60
2023/03/18 02:18:49;;;;;;;0.17;0.17;;;;;;;18.13;54.49;100812.22;4993049;28;20034;-60
2023/03/18 02:21:42;;;;;;;0.10;0.10;;;;;;;19.00;51.97;100808.06;4993450;28;20082;-59
2023/03/18 02:24:33;;;;;;;0.20;0.20;;;;;;;18.38;53.38;100809.41;4993520;28;20038;-61
2023/03/18 02:27:03;;;;;;;0.10;0.10;;;;;;;17.77;55.50;100801.66;4992961;28;20121;-59
2023/03/18 02:29:33;;;;;;;0.10;0.10;;;;;;;18.02;55.32;100813.31;4993385;28;20057;-60
2023/03/18 02:32:04;;;;;;;0.10;0.10;;;;;;;18.79;52.93;100812.00;4993321;28;20390;-59
2023/03/18 02:34:31;;;;;;;0.20;0.20;;;;;;;18.13;55.04;100816.81;4992891;28;20026;-63
2023/03/18 02:36:57;;;;;;;0.30;0.30;;;;;;;17.89;55.81;100821.19;5007560;28;20552;-61
2023/03/18 02:39:23;;;;;;;0.17;0.17;;;;;;;18.25;55.49;100826.31;4993071;28;20030;-59
2023/03/18 02:41:48;;;;;;;0.20;0.20;;;;;;;18.27;55.08;100829.59;4992904;28;20035;-62
2023/03/18 02:44:13;;;;;;;0.20;0.20;;;;;;;18.31;54.62;100821.69;4993063;28;20041;-60
2023/03/18 02:46:52;;;;;;;0.17;0.17;;;;;;;18.37;54.78;100829.56;4992812;28;20217;-61
2023/03/18 02:49:20;;;;;;;0.17;0.17;;;;;;;18.56;53.89;100827.06;4992976;28;20088;-61
2023/03/18 02:51:45;;;;;;;0.20;0.20;;;;;;;18.45;53.90;100825.47;4991405;28;20030;-60
2023/03/18 02:54:23;;;;;;;0.20;0.20;;;;;;;18.59;54.29;100825.69;4992986;28;20493;-60
2023/03/18 02:56:48;;;;;;;0.20;0.20;;;;;;;18.79;52.79;100828.34;4992768;28;20042;-62
2023/03/18 02:59:15;;;;;;;0.20;0.20;;;;;;;18.66;53.42;100840.63;4992645;28;20498;-60
2023/03/18 03:01:42;;;;;;;0.10;0.10;;;;;;;18.87;52.82;100846.81;4992431;28;20041;-61
2023/03/18 03:04:08;;;;;;;0.13;0.13;;;;;;;19.20;51.84;100846.88;4992710;28;20053;-60
2023/03/18 03:06:34;;;;;;;0.10;0.10;;;;;;;19.18;51.52;100854.53;4992627;28;20035;-60
2023/03/18 03:09:01;;;;;;;0.20;0.20;;;;;;;19.20;51.67;100848.81;4977678;28;20028;-61
2023/03/18 03:11:27;;;;;;;0.15;0.15;;;;;;;19.07;51.94;100855.69;5005125;28;20034;-60
2023/03/18 03:13:53;;;;;;;0.20;0.20;;;;;;;19.23;51.73;100848.25;4992817;28;20625;-60
2023/03/18 03:16:19;;;;;;;0.20;0.20;;;;;;;19.43;50.75;100844.59;4993076;28;20070;-60
2023/03/18 03:18:45;;;;;;;0.20;0.20;;;;;;;19.50;50.46;100850.56;4992099;28;20042;-60
2023/03/18 03:21:12;;;;;;;0.20;0.20;;;;;;;19.41;50.45;100844.06;4992237;28;20035;-60
2023/03/18 03:23:38;;;;;;;0.20;0.20;;;;;;;19.34;50.79;100847.09;4992511;28;20061;-59
2023/03/18 03:26:05;;;;;;;0.20;0.20;;;;;;;19.47;50.07;100843.75;4992140;28;20041;-60
2023/03/18 03:28:32;;;;;;;0.20;0.20;;;;;;;19.41;50.32;100842.16;4992018;28;20031;-61
2023/03/18 03:30:58;;;;;;;0.10;0.10;;;;;;;19.40;50.09;100845.19;4992772;28;20018;-61
2023/03/18 03:33:24;;;;;;;0.20;0.20;;;;;;;19.38;50.25;100845.44;4991947;28;20538;-61
2023/03/18 03:35:49;;;;;;;0.20;0.20;;;;;;;19.34;49.90;100849.81;4991594;28;20072;-60
2023/03/18 03:38:15;;;;;;;0.20;0.20;;;;;;;19.29;49.72;100852.56;4991426;28;20038;-61
2023/03/18 03:40:42;;;;;;;0.20;0.20;;;;;;;19.21;49.90;100853.16;4992138;28;20459;-59
2023/03/18 03:43:12;;;;;;;0.10;0.10;;;;;;;19.15;50.58;100857.84;4992180;28;20116;-60
2023/03/18 03:45:37;;;;;;;0.20;0.20;;;;;;;19.12;50.64;100858.38;4991702;28;20049;-63
2023/03/18 03:48:03;;;;;;;0.20;0.20;;;;;;;19.12;50.33;100860.31;5001019;28;20038;-63
2023/03/18 03:50:28;;;;;;;0.30;0.30;;;;;;;19.13;50.50;100864.66;4995910;28;20058;-60
2023/03/18 03:52:54;;;;;;;0.10;0.10;;;;;;;18.98;51.01;100851.13;4991588;28;20927;-62
2023/03/18 03:55:20;;;;;;;0.20;0.20;;;;;;;19.09;50.21;100856.22;4991976;28;20037;-61
2023/03/18 03:57:46;;;;;;;0.10;0.10;;;;;;;19.05;50.21;100859.78;4991435;28;20034;-60
2023/03/18 04:00:15;;;;;;;0.20;0.20;;;;;;;18.89;50.30;100867.22;4991140;28;20042;-60
2023/03/18 04:02:42;;;;;;;0.20;0.20;;;;;;;18.88;50.24;100870.22;4990430;28;20101;-60
2023/03/18 04:05:10;;;;;;;0.10;0.10;;;;;;;18.86;50.63;100872.41;4990886;28;20053;-60
2023/03/18 04:07:35;;;;;;;0.20;0.20;;;;;;;18.32;52.40;100875.00;4991259;28;20494;-61
2023/03/18 04:10:01;;;;;;;0.25;0.25;;;;;;;18.67;51.28;100876.84;4991981;28;20030;-61
2023/03/18 04:12:27;;;;;;;0.10;0.10;;;;;;;18.80;50.40;100882.50;4991038;28;20507;-61
2023/03/18 04:14:52;;;;;;;0.20;0.20;;;;;;;18.69;50.99;100889.06;4991131;28;20038;-59
2023/03/18 04:17:18;;;;;;;0.10;0.10;;;;;;;18.86;50.24;100891.47;4991089;28;20398;-59
2023/03/18 04:19:44;;;;;;;0.15;0.15;;;;;;;18.83;49.97;100890.13;4990628;28;20030;-61
2023/03/18 04:22:09;;;;;;;0.10;0.10;;;;;;;18.76;50.27;100886.06;4992014;28;20030;-62
2023/03/18 04:24:35;;;;;;;0.20;0.20;;;;;;;18.79;49.94;100882.81;4991043;28;20371;-59
2023/03/18 04:27:00;;;;;;;0.20;0.20;;;;;;;18.80;50.02;100887.13;4990999;28;20033;-60
2023/03/18 04:29:26;;;;;;;0.10;0.10;;;;;;;18.83;49.60;100892.84;4991048;28;20494;-60
2023/03/18 04:31:51;;;;;;;0.20;0.20;;;;;;;18.92;49.86;100887.63;4990943;28;20081;-60
2023/03/18 04:34:17;;;;;;;0.20;0.20;;;;;;;18.82;50.29;100890.41;4990781;28;20022;-61
2023/03/18 04:36:42;;;;;;;0.10;0.10;;;;;;;18.85;50.25;100898.81;4990763;28;20034;-60
2023/03/18 04:39:08;;;;;;;0.10;0.10;;;;;;;18.96;49.96;100897.72;4991379;28;20065;-60
2023/03/18 04:41:36;;;;;;;0.15;0.15;;;;;;;18.86;50.63;100900.47;4990377;28;20247;-62
2023/03/18 04:44:01;;;;;;;0.20;0.20;;;;;;;18.99;50.19;100905.31;4989636;28;20035;-61
2023/03/18 04:46:28;;;;;;;0.10;0.10;;;;;;;18.86;50.43;100902.38;4991539;28;20363;-62
2023/03/18 04:48:55;;;;;;;0.20;0.20;;;;;;;19.06;49.86;100903.09;4990197;28;20085;-61
2023/03/18 04:51:20;;;;;;;0.20;0.20;;;;;;;19.06;49.85;100902.28;4990632;28;20038;-59
2023/03/18 04:53:45;;;;;;;0.20;0.20;;;;;;;19.05;50.11;100901.47;4990845;28;20125;-59
2023/03/18 04:56:11;;;;;;;0.20;0.20;;;;;;;19.13;49.94;100900.88;4990891;28;20038;-62
2023/03/18 04:58:37;;;;;;;0.20;0.20;;;;;;;18.76;51.00;100899.69;4990578;28;20363;-60
2023/03/18 05:01:03;;;;;;;0.30;0.30;;;;;;;19.11;50.29;100894.06;4990916;28;20080;-60
2023/03/18 05:03:29;;;;;;;0.10;0.10;;;;;;;19.11;50.44;100899.53;4982611;28;20188;-59
2023/03/18 05:05:55;;;;;;;0.20;0.20;;;;;;;18.93;50.64;100900.16;4981582;28;20121;-61
2023/03/18 05:08:21;;;;;;;0.20;0.20;;;;;;;18.79;50.76;100894.47;4976128;28;20054;-59
2023/03/18 05:10:48;;;;;;;0.20;0.20;;;;;;;18.89;50.68;100894.44;4969235;28;20534;-60
2023/03/18 05:13:15;;;;;;;0.20;0.20;;;;;;;18.85;50.83;100896.09;4962577;28;20089;-60
2023/03/18 05:15:41;;;;;;;0.10;0.10;;;;;;;18.69;51.35;100901.88;4981068;28;20122;-60
2023/03/18 05:18:07;;;;;;;0.20;0.20;;;;;;;18.73;51.66;100906.47;4983547;28;20030;-61
2023/03/18 05:20:33;;;;;;;0.20;0.20;;;;;;;18.93;51.10;100900.16;4974241;28;20050;-60
2023/03/18 05:22:58;;;;;;;0.20;0.20;;;;;;;18.73;51.89;100894.81;4987170;28;20391;-60
2023/03/18 05:25:25;;;;;;;0.10;0.10;;;;;;;18.61;52.06;100897.84;4978506;28;20033;-61
2023/03/18 05:27:50;;;;;;;0.20;0.20;;;;;;;18.60;51.98;100906.25;4980045;28;20043;-62
2023/03/18 05:30:16;;;;;;;0.20;0.20;;;;;;;18.52;51.99;100909.53;4984451;28;20126;-60
2023/03/18 05:32:42;;;;;;;0.20;0.20;;;;;;;18.57;51.92;100902.19;4974286;28;20049;-59
2023/03/18 05:35:09;;;;;;;0.10;0.10;;;;;;;18.48;52.42;100905.72;4972570;28;20039;-61
2023/03/18 05:37:35;;;;;;;0.15;0.15;;;;;;;18.32;52.68;100913.06;4958161;28;20395;-60
2023/03/18 05:40:01;;;;;;;0.20;0.20;;;;;;;18.19;52.72;100903.59;4971670;28;20065;-63
2023/03/18 05:42:27;;;;;;;0.20;0.20;;;;;;;18.29;52.64;100910.91;4970420;28;20043;-61
2023/03/18 05:44:53;;;;;;;0.17;0.17;;;;;;;18.30;52.59;100913.34;4973138;28;20105;-61
2023/03/18 05:47:19;;;;;;;0.10;0.10;;;;;;;18.48;52.10;100922.06;4984502;28;20035;-60
2023/03/18 05:49:45;;;;;;;0.10;0.10;;;;;;;18.22;53.02;100921.28;4980268;28;20470;-60
2023/03/18 05:52:10;;;;;;;0.20;0.20;;;;;;;18.36;52.89;100923.16;4989225;28;20010;-60
2023/03/18 05:54:36;;;;;;;0.20;0.20;;;;;;;18.64;51.70;100927.22;4974082;28;20077;-61
2023/03/18 05:57:01;;;;;;;0.20;0.20;;;;;;;18.60;51.72;100936.19;4986587;28;20283;-61
2023/03/18 05:59:29;;;;;;;0.20;0.20;;;;;;;17.57;56.04;100934.81;4977695;28;20034;-60
2023/03/18 06:01:54;;;;;;;0.20;0.20;;;;;;;17.94;54.74;100943.56;4982535;28;20039;-60
2023/03/18 06:04:19;;;;;;;0.20;0.20;;;;;;;18.18;53.90;100953.63;4993105;28;20113;-59
2023/03/18 06:06:45;;;;;;;0.30;0.30;;;;;;;18.38;53.28;100939.19;4993610;28;20089;-60
2023/03/18 06:09:12;;;;;;;0.20;0.20;;;;;;;18.48;52.68;100935.66;4993707;28;20035;-61
2023/03/18 06:11:38;;;;;;;0.20;0.20;;;;;;;18.61;52.53;100932.41;4993544;28;20133;-60
2023/03/18 06:14:05;;;;;;;0.20;0.20;;;;;;;19.25;50.87;100935.97;4993704;28;20049;-60
2023/03/18 06:16:33;;;;;;;0.17;0.17;;;;;;;19.43;50.41;100935.38;5006528;28;20117;-61
2023/03/18 06:18:59;;;;;;;0.20;0.20;;;;;;;19.53;49.79;100940.75;4983065;28;20032;-60
2023/03/18 06:21:26;;;;;;;0.20;0.20;;;;;;;19.46;50.15;100939.44;4991965;28;20039;-61
2023/03/18 06:23:52;;;;;;;0.30;0.30;;;;;;;18.86;52.39;100952.19;4992354;28;20243;-59
2023/03/18 06:26:17;;;;;;;0.30;0.30;;;;;;;18.66;52.78;100951.44;4992624;28;20057;-61
2023/03/18 06:28:43;;;;;;;0.20;0.20;;;;;;;18.58;52.96;100963.69;4992277;28;20023;-61
2023/03/18 06:31:09;;;;;;;0.20;0.20;;;;;;;18.64;53.33;100972.66;4974739;28;20025;-60
2023/03/18 06:33:35;;;;;;;0.20;0.20;;;;;;;18.40;53.50;100973.22;4992892;28;20049;-62
2023/03/18 06:36:01;;;;;;;0.20;0.20;;;;;;;18.52;53.02;100980.28;4992947;28;20495;-61
2023/03/18 06:38:27;;;;;;;0.20;0.20;;;;;;;18.46;53.89;100981.38;4993258;28;20089;-59
2023/03/18 06:40:53;;;;;;;0.10;0.10;;;;;;;18.41;54.89;100982.19;4993135;28;20030;-61
2023/03/18 06:43:19;;;;;;;0.20;0.20;;;;;;;18.56;53.76;100990.38;4993673;28;20033;-60
2023/03/18 06:45:45;;;;;;;0.20;0.20;;;;;;;18.59;53.95;100987.13;4992908;28;20042;-60
2023/03/18 06:48:10;;;;;;;0.20;0.20;;;;;;;18.74;53.62;101002.59;4992903;28;20034;-59
2023/03/18 06:50:38;;;;;;;0.20;0.20;;;;;;;18.65;53.74;101010.53;4992844;28;20039;-59
2023/03/18 06:53:04;;;;;;;0.25;0.25;;;;;;;18.63;54.53;101006.44;4992679;28;20066;-60
2023/03/18 06:55:29;;;;;;;0.20;0.20;;;;;;;18.63;54.60;101009.97;4993263;28;20037;-63
2023/03/18 06:57:56;;;;;;;0.20;0.20;;;;;;;18.77;54.06;101004.78;4993292;28;20390;-60
2023/03/18 07:00:21;;;;;;;0.10;0.10;;;;;;;18.76;54.64;101003.97;4992298;28;20107;-62
2023/03/18 07:02:47;;;;;;;0.20;0.20;;;;;;;18.76;54.83;101003.97;4990705;28;20066;-60
2023/03/18 07:05:13;;;;;;;0.10;0.10;;;;;;;18.86;54.56;101006.66;4969049;28;20039;-62
2023/03/18 07:07:39;;;;;;;0.20;0.20;;;;;;;18.89;54.62;101011.53;4962806;28;20049;-62
2023/03/18 07:10:06;;;;;;;0.20;0.20;;;;;;;18.81;54.39;101014.81;4961854;28;20031;-61
2023/03/18 07:12:32;;;;;;;0.20;0.20;;;;;;;18.91;54.19;101025.72;4968512;28;20042;-62
2023/03/18 07:14:57;;;;;;;0.20;0.20;;;;;;;19.00;54.46;101023.25;4957101;28;20039;-62
2023/03/18 07:17:23;;;;;;;0.20;0.20;;;;;;;19.01;54.62;101033.03;4973052;28;20046;-61
2023/03/18 07:19:48;;;;;;;0.10;0.10;;;;;;;18.75;55.83;101045.88;4963020;28;20468;-60
2023/03/18 07:22:16;;;;;;;0.20;0.20;;;;;;;18.79;56.05;101036.06;4967516;28;20023;-59
2023/03/18 07:24:44;;;;;;;0.20;0.20;;;;;;;18.58;56.70;101031.75;4957007;28;20042;-61
2023/03/18 07:27:12;;;;;;;0.20;0.20;;;;;;;19.12;55.44;101024.56;4968113;28;20042;-61
2023/03/18 07:29:37;;;;;;;0.10;0.10;;;;;;;19.17;55.92;101018.28;4968897;28;20641;-59
2023/03/18 07:32:03;;;;;;;0.15;0.15;;;;;;;19.30;56.01;101020.44;4972280;28;20039;-61
2023/03/18 07:34:28;;;;;;;0.17;0.17;;;;;;;19.48;55.66;101025.28;4965270;28;20471;-60
2023/03/18 07:36:54;;;;;;;0.20;0.20;;;;;;;19.45;55.40;101025.84;4956716;28;20039;-59
2023/03/18 07:39:19;;;;;;;0.10;0.10;;;;;;;19.47;55.67;101031.00;4966497;28;20372;-61
2023/03/18 07:41:45;;;;;;;0.10;0.10;;;;;;;19.52;55.96;101033.75;4962560;28;20093;-60
2023/03/18 07:44:10;;;;;;;0.10;0.10;;;;;;;19.80;54.81;101041.22;4960103;28;20036;-61
2023/03/18 07:46:36;;;;;;;0.10;0.10;;;;;;;19.12;57.92;101049.06;4969353;28;20031;-60
2023/03/18 07:49:01;;;;;;;0.20;0.20;;;;;;;19.50;56.15;101046.81;4957510;28;20019;-60
2023/03/18 07:51:26;;;;;;;0.20;0.20;;;;;;;19.44;56.28;101043.28;4971973;28;20042;-60
2023/03/18 07:53:52;;;;;;;0.20;0.20;;;;;;;18.99;58.29;101046.94;4961930;28;20028;-60
2023/03/18 07:56:17;;;;;;;0.20;0.20;;;;;;;18.93;58.45;101047.22;4980567;28;20042;-62
2023/03/18 07:58:43;;;;;;;0.20;0.20;;;;;;;18.88;60.29;101047.22;4972112;28;20027;-60
2023/03/18 08:01:08;;;;;;;0.15;0.15;;;;;;;19.19;58.38;101048.78;4959747;28;20494;-60
2023/03/18 08:03:34;;;;;;;0.20;0.20;;;;;;;18.94;58.61;101054.31;4983275;28;20051;-61
2023/03/18 08:06:00;;;;;;;0.20;0.20;;;;;;;19.40;58.63;101058.56;4990203;28;20494;-61
2023/03/18 08:08:26;;;;;;;0.10;0.10;;;;;;;18.86;59.93;101054.84;4990028;28;20121;-60
2023/03/18 08:10:57;;;;;;;0.20;0.20;;;;;;;19.04;60.04;101043.41;4989843;28;20173;-61
2023/03/18 08:13:24;;;;;;;0.10;0.10;;;;;;;18.53;62.04;101047.28;4991361;28;20069;-62
2023/03/18 08:15:50;;;;;;;0.10;0.10;;;;;;;19.27;58.63;101046.31;4990937;28;20109;-61
2023/03/18 08:18:15;;;;;;;0.10;0.10;;;;;;;19.44;58.07;101054.19;4990600;28;20045;-60
2023/03/18 08:20:40;;;;;;;0.10;0.10;;;;;;;18.73;59.88;101060.88;4990534;28;20102;-60
2023/03/18 08:23:06;;;;;;;0.20;0.20;;;;;;;19.12;58.58;101059.97;4987832;28;20556;-61
2023/03/18 08:25:32;;;;;;;0.10;0.10;;;;;;;19.30;58.41;101067.56;4987769;28;20026;-60
2023/03/18 08:27:57;;;;;;;0.10;0.10;;;;;;;18.99;59.28;101065.19;4991552;28;20030;-60
2023/03/18 08:30:27;;;;;;;0.20;0.20;;;;;;;18.48;60.97;101061.69;4991271;28;20035;-60
2023/03/18 08:32:53;;;;;;;0.13;0.13;;;;;;;18.93;59.47;101071.72;4964432;28;20034;-60
2023/03/18 08:35:18;;;;;;;0.20;0.20;;;;;;;18.99;59.67;101066.00;4973091;28;20414;-60
2023/03/18 08:37:44;;;;;;;0.10;0.10;;;;;;;18.73;60.83;101069.84;4987698;28;20026;-60
2023/03/18 08:40:10;;;;;;;0.20;0.20;;;;;;;18.40;61.14;101063.00;4975682;28;20034;-61
2023/03/18 08:42:35;;;;;;;0.20;0.20;;;;;;;18.57;60.74;101075.56;4989844;28;20026;-59
2023/03/18 08:45:01;;;;;;;0.20;0.20;;;;;;;18.50;61.54;101070.38;4985702;28;20383;-60
2023/03/18 08:47:28;;;;;;;0.10;0.10;;;;;;;17.88;63.21;101075.97;4981660;28;20041;-60
2023/03/18 08:49:53;;;;;;;0.10;0.10;;;;;;;18.69;60.78;101068.75;4989554;28;20034;-61
2023/03/18 08:52:19;;;;;;;0.20;0.20;;;;;;;19.10;58.50;101074.97;4990144;28;20351;-62
2023/03/18 08:54:44;;;;;;;0.10;0.10;;;;;;;18.55;61.06;101089.47;4990076;28;20085;-60
2023/03/18 08:57:10;;;;;;;0.13;0.13;;;;;;;18.35;61.18;101078.53;4989868;28;20054;-61
2023/03/18 08:59:35;;;;;;;0.20;0.20;;;;;;;18.88;59.46;101083.47;4989862;28;20033;-63
2023/03/18 09:02:02;;;;;;;0.20;0.20;;;;;;;18.08;61.89;101097.78;4989710;28;20085;-61
2023/03/18 09:04:28;;;;;;;0.20;0.20;;;;;;;18.07;62.10;101088.00;4989780;28;20045;-59
2023/03/18 09:06:54;;;;;;;0.20;0.20;;;;;;;18.59;59.74;101098.72;4987006;28;20046;-60
2023/03/18 09:09:19;;;;;;;0.10;0.10;;;;;;;18.96;59.06;101101.97;4966455;28;20132;-61
2023/03/18 09:11:45;;;;;;;0.10;0.10;;;;;;;19.13;58.32;101098.94;4987249;28;20102;-59
2023/03/18 09:14:12;;;;;;;0.10;0.10;;;;;;;19.66;56.09;101102.91;4986732;28;20093;-60
2023/03/18 09:16:37;;;;;;;0.15;0.15;;;;;;;19.11;58.06;101099.22;4987222;28;20113;-59
2023/03/18 09:19:02;;;;;;;0.20;0.20;;;;;;;18.71;58.31;101096.50;4988111;28;20424;-61
2023/03/18 09:21:28;;;;;;;0.20;0.20;;;;;;;19.75;55.83;101093.06;4986270;28;20034;-60
2023/03/18 09:23:53;;;;;;;0.17;0.17;;;;;;;19.82;55.30;101091.66;4986451;28;20034;-62
2023/03/18 09:26:19;;;;;;;0.20;0.20;;;;;;;19.82;54.71;101097.13;4986071;28;20043;-60
2023/03/18 09:28:44;;;;;;;0.10;0.10;;;;;;;19.91;54.44;101091.91;4986630;28;20022;-62
2023/03/18 09:31:09;;;;;;;0.20;0.20;;;;;;;19.36;55.81;101105.75;4987849;28;20110;-63
2023/03/18 09:33:38;;;;;;;0.20;0.20;;;;;;;19.45;55.90;101101.34;4986397;28;20031;-64
2023/03/18 09:36:04;;;;;;;0.20;0.20;;;;;;;20.57;52.74;101097.78;4987820;28;20066;-60
2023/03/18 09:38:30;;;;;;;0.20;0.20;;;;;;;20.46;53.36;101107.94;4990929;28;20527;-60
2023/03/18 09:41:20;;;;;;;0.20;0.20;;;;;;;20.17;54.03;101102.38;4990805;28;20062;-61
2023/03/18 09:43:58;;;;;;;0.20;0.20;;;;;;;20.26;53.33;101113.56;4988925;28;20076;-61
2023/03/18 09:46:37;;;;;;;0.10;0.10;;;;;;;20.84;51.37;101111.75;4990281;28;20447;-59
2023/03/18 09:49:22;;;;;;;0.20;0.20;;;;;;;20.89;50.94;101103.53;4981107;28;20031;-61
2023/03/18 09:52:02;;;;;;;0.10;0.10;;;;;;;20.98;50.78;101099.06;4989928;28;20032;-59
2023/03/18 09:54:40;;;;;;;0.20;0.20;;;;;;;20.64;52.55;101095.50;4990051;28;20042;-60
2023/03/18 09:57:14;;;;;;;0.10;0.10;;;;;;;21.26;48.87;101094.72;4989765;28;20035;-60
2023/03/18 09:59:44;;;;;;;0.10;0.10;;;;;;;20.04;51.98;101102.19;4990242;28;20121;-59
2023/03/18 10:02:35;;;;;;;0.15;0.15;;;;;;;20.16;53.22;101113.59;4988309;28;20454;-60
2023/03/18 10:05:04;;;;;;;0.13;0.13;;;;;;;20.38;52.41;101116.75;4989468;28;20125;-60
2023/03/18 10:07:37;;;;;;;0.10;0.10;;;;;;;19.70;53.06;101115.72;4989536;28;20037;-64
2023/03/18 10:10:08;;;;;;;0.10;0.10;;;;;;;20.63;50.86;101107.56;4970371;28;20046;-60
2023/03/18 10:12:37;;;;;;;0.20;0.20;;;;;;;20.52;50.28;101109.53;4990697;28;20061;-61
2023/03/18 10:15:37;;;;;;;0.10;0.10;;;;;;;20.24;51.37;101117.66;4988350;28;20498;-61
2023/03/18 10:18:35;;;;;;;0.20;0.20;;;;;;;20.75;50.84;101118.94;4978663;28;20038;-61
2023/03/18 10:21:34;;;;;;;0.20;0.20;;;;;;;20.99;49.64;101117.09;4989703;28;20043;-59
2023/03/18 10:24:25;;;;;;;0.17;0.17;;;;;;;20.61;50.69;101121.50;4985545;28;20058;-63
2023/03/18 10:27:37;;;;;;;0.20;0.20;;;;;;;21.53;48.50;101122.28;4979678;28;20050;-58
2023/03/18 10:30:28;;;;;;;0.10;0.10;;;;;;;22.18;47.08;101120.66;4908727;29;20043;-61
2023/03/18 10:33:04;;;;;;;0.10;0.10;;;;;;;21.67;48.82;101123.22;4909667;29;20043;-59
2023/03/18 10:35:53;;;;;;;0.17;0.17;;;;;;;22.24;47.25;101127.72;4908492;29;20067;-60
2023/03/18 10:38:30;;;;;;;0.10;0.10;;;;;;;21.43;47.83;101125.13;4909384;29;20028;-59
2023/03/18 10:40:57;;;;;;;0.10;0.10;;;;;;;20.87;48.96;101122.13;4909719;29;20044;-60
2023/03/18 10:43:27;;;;;;;0.10;0.10;;;;;;;21.41;47.55;101125.44;4910109;29;20123;-62
2023/03/18 10:46:02;;;;;;;0.10;0.10;;;;;;;21.31;47.24;101122.81;4908147;29;20618;-60
2023/03/18 10:48:48;;;;;;;0.10;0.10;;;;;;;20.88;48.71;101121.81;4908658;29;20255;-60
2023/03/18 10:51:27;;;;;;;0.10;0.10;;;;;;;21.45;47.67;101128.41;4909955;29;20123;-60
2023/03/18 10:54:23;;;;;;;0.10;0.10;;;;;;;22.50;45.19;101121.56;4908825;29;20036;-60
2023/03/18 10:56:48;;;;;;;0.10;0.10;;;;;;;21.68;47.68;101131.13;4908465;29;20040;-61
2023/03/18 10:59:17;;;;;;;0.20;0.20;;;;;;;22.01;47.69;101125.84;4908876;29;20160;-60
2023/03/18 11:01:46;;;;;;;0.10;0.10;;;;;;;22.98;44.91;101124.09;4971650;28;20126;-62
2023/03/18 11:04:15;;;;;;;0.20;0.20;;;;;;;22.80;44.74;101120.28;4978891;28;20057;-60
2023/03/18 11:06:48;;;;;;;0.20;0.20;;;;;;;22.68;44.68;101109.78;4976822;28;20042;-60
2023/03/18 11:09:23;;;;;;;0.10;0.10;;;;;;;23.14;44.94;101122.72;4987328;28;20026;-60
2023/03/18 11:11:54;;;;;;;0.10;0.10;;;;;;;23.36;43.84;101106.44;4987577;28;20099;-61
2023/03/18 11:14:27;;;;;;;0.10;0.10;;;;;;;23.48;43.68;101107.56;4977242;28;20046;-61
2023/03/18 11:17:05;;;;;;;0.10;0.10;;;;;;;23.66;43.57;101102.28;4976545;28;20101;-61
2023/03/18 11:19:40;;;;;;;0.10;0.10;;;;;;;23.22;44.37;101103.66;4981824;28;20033;-62
2023/03/18 11:22:08;;;;;;;0.10;0.10;;;;;;;22.98;43.62;101102.16;4986072;28;20352;-61
2023/03/18 11:24:37;;;;;;;0.10;0.10;;;;;;;23.54;43.77;101102.78;4986723;28;20053;-61
2023/03/18 11:27:05;;;;;;;0.10;0.10;;;;;;;23.53;43.66;101096.47;4986934;28;20030;-60
2023/03/18 11:29:33;;;;;;;0.00;0.00;;;;;;;23.99;42.68;101098.25;4987396;28;20357;-60